Time;durP1;ratioP1;P1;durP2;ratioP2;P2;SDS_P1;SDS_P2;PMS_P1;PMS_P2;Temp;Humidity;BMP_temperature;BMP_pressure;BME280_temperature;BME280_humidity;BME280_pressure;Samples;Min_cycle;Max_cycle;Signal;HPM_P1;HPM_P2
2021/08/16 00:00:27;;;;;;;;;;;;;;;25.93;61.58;100110.72;2075756;28;19967;-61
2021/08/16 00:01:27;;;;;;;;;;;;;;;25.94;61.54;100107.72;2082858;28;20028;-60
2021/08/16 00:02:27;;;;;;;;;;;;;;;25.94;61.49;100107.72;2081691;28;19954;-60
2021/08/16 00:03:28;;;;;;;;;;;;;;;25.93;61.54;100103.28;2074651;28;19920;-61
2021/08/16 00:04:28;;;;;;;;;;;;;;;25.93;61.81;100106.03;2075923;28;20011;-60
2021/08/16 00:05:28;;;;;;;;;;;;;;;25.94;61.79;100110.50;2073971;28;19945;-60
2021/08/16 00:06:29;;;;;;;;;;;;;;;25.93;61.87;100106.03;2077119;28;20445;-61
2021/08/16 00:07:29;;;;;;;;;;;;;;;25.93;61.80;100100.50;2075091;28;21092;-60
2021/08/16 00:08:30;;;;;;;;;;;;;;;25.93;61.65;100108.81;2077722;28;19927;-60
2021/08/16 00:09:30;;;;;;;;;;;;;;;25.94;61.79;100107.72;2074934;28;20630;-60
2021/08/16 00:10:30;;;;;;;;;;;;;;;25.94;61.76;100107.72;2083369;28;20037;-60
2021/08/16 00:11:30;;;;;;;;;;;;;;;25.93;61.62;100106.03;2084695;28;19921;-60
2021/08/16 00:12:31;;;;;;;;;;;;;;;25.94;61.78;100107.72;2076682;28;19927;-60
2021/08/16 00:13:31;;;;;;;;;;;;;;;25.94;61.83;100101.34;2081284;28;19988;-60
2021/08/16 00:14:32;;;;;;;;;;;;;;;25.94;61.62;100102.22;2078329;28;19921;-61
2021/08/16 00:15:33;;;;;;;;;;;;;;;25.93;61.88;100100.50;2076940;28;19921;-60
2021/08/16 00:16:34;;;;;;;;;;;;;;;25.93;61.87;100099.66;2076968;28;19920;-61
2021/08/16 00:17:34;;;;;;;;;;;;;;;25.93;61.67;100094.13;2077099;28;19908;-60
2021/08/16 00:18:35;;;;;;;;;;;;;;;25.93;61.77;100095.00;2076935;28;19913;-60
2021/08/16 00:19:35;;;;;;;;;;;;;;;25.93;61.87;100099.66;2078300;28;19917;-60
2021/08/16 00:20:35;;;;;;;;;;;;;;;25.92;61.82;100093.28;2077054;28;19939;-61
2021/08/16 00:21:36;;;;;;;;;;;;;;;25.92;61.89;100101.56;2077823;28;19916;-61
2021/08/16 00:22:36;;;;;;;;;;;;;;;25.93;61.69;100094.13;2078790;28;19920;-61
2021/08/16 00:23:36;;;;;;;;;;;;;;;25.92;61.73;100101.56;2074142;28;20936;-60
2021/08/16 00:24:37;;;;;;;;;;;;;;;25.92;61.97;100098.81;2077257;28;20873;-60
2021/08/16 00:25:37;;;;;;;;;;;;;;;25.92;62.00;100098.81;2076357;28;19928;-60
2021/08/16 00:26:37;;;;;;;;;;;;;;;25.92;61.74;100104.34;2077486;28;20324;-60
2021/08/16 00:27:38;;;;;;;;;;;;;;;25.91;61.99;100102.59;2075774;28;20000;-60
2021/08/16 00:28:38;;;;;;;;;;;;;;;25.92;61.80;100101.56;2076846;28;19928;-61
2021/08/16 00:29:38;;;;;;;;;;;;;;;25.92;61.81;100101.56;2076614;28;19917;-61
2021/08/16 00:30:39;;;;;;;;;;;;;;;25.93;61.77;100099.66;2076455;28;20915;-60
2021/08/16 00:31:40;;;;;;;;;;;;;;;25.93;61.87;100105.19;2078093;28;19975;-60
2021/08/16 00:32:40;;;;;;;;;;;;;;;25.91;61.95;100102.59;2076302;28;20008;-60
2021/08/16 00:33:40;;;;;;;;;;;;;;;25.92;61.85;100103.47;2076447;28;20996;-60
2021/08/16 00:34:41;;;;;;;;;;;;;;;25.92;61.90;100104.34;2073393;28;20182;-60
2021/08/16 00:35:41;;;;;;;;;;;;;;;25.92;61.81;100103.47;2072601;28;19964;-60
2021/08/16 00:36:41;;;;;;;;;;;;;;;25.91;62.05;100099.84;2074545;28;19913;-60
2021/08/16 00:37:42;;;;;;;;;;;;;;;25.91;62.09;100107.28;2077720;28;19927;-60
2021/08/16 00:38:42;;;;;;;;;;;;;;;25.91;61.88;100102.59;2080345;28;20299;-60
2021/08/16 00:39:42;;;;;;;;;;;;;;;25.91;61.88;100101.75;2084560;28;19967;-60
2021/08/16 00:40:43;;;;;;;;;;;;;;;25.91;61.84;100108.13;2080121;28;19917;-61
2021/08/16 00:41:45;;;;;;;;;;;;;;;25.91;61.89;100108.13;2077273;28;19921;-61
2021/08/16 00:42:46;;;;;;;;;;;;;;;25.91;61.90;100110.88;2084439;28;19916;-60
2021/08/16 00:43:47;;;;;;;;;;;;;;;25.91;61.95;100101.75;2084273;28;19923;-60
2021/08/16 00:44:47;;;;;;;;;;;;;;;25.91;62.13;100102.59;2074629;28;20007;-60
2021/08/16 00:45:48;;;;;;;;;;;;;;;25.91;62.09;100108.13;2092386;28;19912;-61
2021/08/16 00:46:49;;;;;;;;;;;;;;;25.91;61.97;100110.03;2082030;28;19951;-61
2021/08/16 00:47:49;;;;;;;;;;;;;;;25.90;62.10;100106.44;2077288;28;19917;-61
2021/08/16 00:48:49;;;;;;;;;;;;;;;25.90;61.89;100106.44;2077391;28;19959;-61
2021/08/16 00:49:49;;;;;;;;;;;;;;;25.91;62.17;100102.59;2076932;28;19921;-60
2021/08/16 00:50:50;;;;;;;;;;;;;;;25.90;62.10;100106.44;2077927;28;20075;-61
2021/08/16 00:51:50;;;;;;;;;;;;;;;25.90;62.13;100103.66;2070764;28;19921;-60
2021/08/16 00:52:50;;;;;;;;;;;;;;;25.90;62.19;100100.06;2076595;28;19952;-61
2021/08/16 00:53:51;;;;;;;;;;;;;;;25.90;61.90;100100.06;2074775;28;20297;-61
2021/08/16 00:54:53;;;;;;;;;;;;;;;25.91;62.14;100104.53;2075395;28;20260;-60
2021/08/16 00:55:53;;;;;;;;;;;;;;;25.90;61.99;100106.44;2075909;28;20479;-60
2021/08/16 00:56:53;;;;;;;;;;;;;;;25.89;62.05;100099.19;2072212;28;19917;-61
2021/08/16 00:57:54;;;;;;;;;;;;;;;25.90;62.25;100100.91;2075809;28;19961;-60
2021/08/16 00:58:56;;;;;;;;;;;;;;;25.91;61.97;100096.25;2078103;28;19920;-60
2021/08/16 00:59:57;;;;;;;;;;;;;;;25.89;62.17;100099.19;2076639;28;19913;-61
2021/08/16 01:00:58;;;;;;;;;;;;;;;25.91;61.84;100108.13;2077120;28;19923;-61
2021/08/16 01:01:58;;;;;;;;;;;;;;;25.90;62.02;100106.44;2076540;28;20591;-60
2021/08/16 01:03:00;;;;;;;;;;;;;;;25.90;62.19;100105.59;2073406;28;20595;-60
2021/08/16 01:04:00;;;;;;;;;;;;;;;25.91;62.18;100112.81;2076784;28;20740;-61
2021/08/16 01:05:02;;;;;;;;;;;;;;;25.89;62.23;100099.19;2078487;28;20353;-60
2021/08/16 01:06:03;;;;;;;;;;;;;;;25.89;62.23;100101.94;2072828;28;20375;-61
2021/08/16 01:07:04;;;;;;;;;;;;;;;25.90;62.29;100095.38;2077313;28;19924;-61
2021/08/16 01:08:04;;;;;;;;;;;;;;;25.90;62.09;100103.66;2076763;28;19913;-61
2021/08/16 01:09:04;;;;;;;;;;;;;;;25.90;62.19;100103.66;2076893;28;19927;-61
2021/08/16 01:10:06;;;;;;;;;;;;;;;25.90;62.32;100103.66;2076882;28;20004;-60
2021/08/16 01:11:06;;;;;;;;;;;;;;;25.90;62.18;100100.06;2077626;28;20016;-61
2021/08/16 01:12:07;;;;;;;;;;;;;;;25.89;62.38;100096.41;2077703;28;19921;-60
2021/08/16 01:13:08;;;;;;;;;;;;;;;25.90;62.20;100102.81;2076152;28;19916;-60
2021/08/16 01:14:08;;;;;;;;;;;;;;;25.90;62.22;100105.59;2077555;28;19924;-61
2021/08/16 01:15:09;;;;;;;;;;;;;;;25.89;62.33;100101.94;2076252;28;19921;-60
2021/08/16 01:16:10;;;;;;;;;;;;;;;25.88;62.24;100101.09;2076402;28;20283;-60
2021/08/16 01:17:11;;;;;;;;;;;;;;;25.88;62.19;100103.00;2075249;28;19991;-61
2021/08/16 01:18:11;;;;;;;;;;;;;;;25.89;62.33;100101.94;2075121;28;19921;-61
2021/08/16 01:19:11;;;;;;;;;;;;;;;25.88;62.35;100103.00;2072802;28;19928;-60
2021/08/16 01:20:13;;;;;;;;;;;;;;;25.89;62.15;100104.69;2073838;28;20002;-60
2021/08/16 01:21:15;;;;;;;;;;;;;;;25.87;62.10;100104.03;2078045;28;20640;-60
2021/08/16 01:22:16;;;;;;;;;;;;;;;25.88;62.12;100108.53;2078087;28;19925;-60
2021/08/16 01:23:17;;;;;;;;;;;;;;;25.87;62.16;100102.16;2074895;28;19925;-60
2021/08/16 01:24:17;;;;;;;;;;;;;;;25.88;62.11;100098.34;2075703;28;20039;-61
2021/08/16 01:25:18;;;;;;;;;;;;;;;25.88;62.08;100094.72;2076327;28;19956;-61
2021/08/16 01:26:18;;;;;;;;;;;;;;;25.87;62.23;100095.75;2076141;28;20002;-60
2021/08/16 01:27:18;;;;;;;;;;;;;;;25.88;62.15;100091.97;2074714;28;19928;-61
2021/08/16 01:28:19;;;;;;;;;;;;;;;25.87;62.36;100101.28;2076832;28;19927;-60
2021/08/16 01:29:21;;;;;;;;;;;;;;;25.87;62.40;100098.50;2076890;28;19924;-60
2021/08/16 01:30:21;;;;;;;;;;;;;;;25.88;62.51;100103.84;2077803;28;19925;-60
2021/08/16 01:31:21;;;;;;;;;;;;;;;25.87;62.14;100102.16;2076607;28;20367;-61
2021/08/16 01:32:22;;;;;;;;;;;;;;;25.86;62.39;100103.19;2076401;28;20440;-61
2021/08/16 01:33:22;;;;;;;;;;;;;;;25.86;62.29;100097.66;2078311;28;19921;-60
2021/08/16 01:34:23;;;;;;;;;;;;;;;25.86;62.09;100099.56;2077015;28;20704;-60
2021/08/16 01:35:23;;;;;;;;;;;;;;;25.87;62.25;100095.75;2074519;28;20418;-60
2021/08/16 01:36:23;;;;;;;;;;;;;;;25.87;62.29;100095.75;2077694;28;19912;-61
2021/08/16 01:37:24;;;;;;;;;;;;;;;25.87;62.36;100101.28;2077191;28;19970;-60
2021/08/16 01:38:29;;;;;;;;;;;;;;;25.87;62.42;100091.13;2078276;28;20384;-61
2021/08/16 01:39:29;;;;;;;;;;;;;;;25.87;62.13;100104.91;2077107;28;20742;-60
2021/08/16 01:40:29;;;;;;;;;;;;;;;25.86;62.06;100100.44;2072334;28;20879;-61
2021/08/16 01:41:30;;;;;;;;;;;;;;;25.86;62.42;100099.56;2074103;28;20676;-60
2021/08/16 01:42:30;;;;;;;;;;;;;;;25.87;62.36;100101.28;2076028;28;20761;-60
2021/08/16 01:43:30;;;;;;;;;;;;;;;25.86;62.10;100105.09;2093710;28;19927;-60
2021/08/16 01:44:31;;;;;;;;;;;;;;;25.86;62.19;100102.34;2091203;28;20662;-61
2021/08/16 01:45:31;;;;;;;;;;;;;;;25.86;62.09;100099.56;2077400;28;19921;-61
2021/08/16 01:46:31;;;;;;;;;;;;;;;25.86;62.13;100105.09;2076664;28;20027;-61
2021/08/16 01:47:32;;;;;;;;;;;;;;;25.86;62.37;100099.56;2077079;28;19921;-61
2021/08/16 01:48:32;;;;;;;;;;;;;;;25.86;62.23;100105.09;2076762;28;19995;-61
2021/08/16 01:49:32;;;;;;;;;;;;;;;25.85;62.36;100098.72;2076670;28;19924;-61
2021/08/16 01:50:33;;;;;;;;;;;;;;;25.86;62.41;100100.44;2073880;28;19955;-60
2021/08/16 01:51:34;;;;;;;;;;;;;;;25.87;62.13;100106.81;2076092;28;19966;-61
2021/08/16 01:52:34;;;;;;;;;;;;;;;25.86;62.11;100102.34;2076352;28;19920;-60
2021/08/16 01:53:34;;;;;;;;;;;;;;;25.87;62.17;100101.28;2077112;28;20773;-60
2021/08/16 01:54:36;;;;;;;;;;;;;;;25.86;62.15;100099.56;2075437;28;19995;-60
2021/08/16 01:55:36;;;;;;;;;;;;;;;25.86;62.36;100099.56;2077021;28;19920;-60
2021/08/16 01:56:37;;;;;;;;;;;;;;;25.86;62.10;100110.63;2076940;28;20425;-60
2021/08/16 01:57:37;;;;;;;;;;;;;;;25.85;62.37;100103.38;2075953;28;19925;-61
2021/08/16 01:58:38;;;;;;;;;;;;;;;25.85;62.42;100109.78;2076274;28;19944;-61
2021/08/16 01:59:38;;;;;;;;;;;;;;;25.86;62.14;100105.94;2075400;28;19932;-61
2021/08/16 02:00:38;;;;;;;;;;;;;;;25.86;62.06;100105.09;2076061;28;19927;-61
2021/08/16 02:01:39;;;;;;;;;;;;;;;25.86;62.17;100105.09;2076909;28;20402;-60
2021/08/16 02:02:39;;;;;;;;;;;;;;;25.86;62.11;100102.34;2075578;28;19921;-61
2021/08/16 02:03:40;;;;;;;;;;;;;;;25.86;62.10;100116.16;2077687;28;19920;-61
2021/08/16 02:04:40;;;;;;;;;;;;;;;25.85;62.09;100108.88;2076593;28;19920;-61
2021/08/16 02:05:41;;;;;;;;;;;;;;;25.85;62.15;100111.66;2075836;28;19977;-61
2021/08/16 02:06:41;;;;;;;;;;;;;;;25.85;62.07;100109.78;2075512;28;20307;-61
2021/08/16 02:07:42;;;;;;;;;;;;;;;25.84;62.36;100112.69;2076750;28;20384;-61
2021/08/16 02:08:42;;;;;;;;;;;;;;;25.84;62.15;100115.44;2073653;28;20141;-61
2021/08/16 02:09:42;;;;;;;;;;;;;;;25.83;62.47;100111.84;2076036;28;20011;-60
2021/08/16 02:10:43;;;;;;;;;;;;;;;25.85;62.29;100108.88;2075418;28;19925;-60
2021/08/16 02:11:43;;;;;;;;;;;;;;;25.83;62.17;100111.00;2076876;28;19916;-60
2021/08/16 02:12:43;;;;;;;;;;;;;;;25.85;62.33;100108.88;2074681;28;20648;-60
2021/08/16 02:13:43;;;;;;;;;;;;;;;25.84;62.13;100109.91;2078703;28;19928;-60
2021/08/16 02:14:44;;;;;;;;;;;;;;;25.85;62.14;100114.41;2075359;28;20135;-61
2021/08/16 02:15:44;;;;;;;;;;;;;;;25.83;62.28;100108.22;2076503;28;19952;-60
2021/08/16 02:16:45;;;;;;;;;;;;;;;25.84;62.31;100112.69;2075794;28;19926;-61
2021/08/16 02:17:45;;;;;;;;;;;;;;;25.83;62.17;100111.84;2075312;28;19927;-60
2021/08/16 02:18:45;;;;;;;;;;;;;;;25.84;62.37;100113.53;2076870;28;19920;-61
2021/08/16 02:19:47;;;;;;;;;;;;;;;25.83;62.04;100116.50;2075515;28;19968;-60
2021/08/16 02:20:48;;;;;;;;;;;;;;;25.83;62.39;100105.47;2073835;28;19932;-60
2021/08/16 02:21:48;;;;;;;;;;;;;;;25.83;62.51;100105.47;2075449;28;19917;-60
2021/08/16 02:22:48;;;;;;;;;;;;;;;25.82;62.36;100104.63;2074736;28;20446;-61
2021/08/16 02:23:48;;;;;;;;;;;;;;;25.83;62.33;100105.47;2077482;28;19921;-61
2021/08/16 02:24:49;;;;;;;;;;;;;;;25.83;62.12;100111.00;2075558;28;20375;-61
2021/08/16 02:25:49;;;;;;;;;;;;;;;25.83;62.18;100111.00;2076467;28;19912;-60
2021/08/16 02:26:50;;;;;;;;;;;;;;;25.82;62.11;100104.63;2077807;28;19920;-61
2021/08/16 02:27:53;;;;;;;;;;;;;;;25.82;62.17;100110.13;2074457;28;19912;-60
2021/08/16 02:28:53;;;;;;;;;;;;;;;25.82;62.13;100110.13;2075698;28;19936;-60
2021/08/16 02:29:53;;;;;;;;;;;;;;;25.82;62.35;100115.66;2076726;28;19978;-61
2021/08/16 02:30:54;;;;;;;;;;;;;;;25.81;62.33;100113.94;2075059;28;20290;-60
2021/08/16 02:31:54;;;;;;;;;;;;;;;25.82;62.42;100115.66;2076863;28;19919;-60
2021/08/16 02:32:54;;;;;;;;;;;;;;;25.81;62.14;100107.56;2073549;28;19966;-60
2021/08/16 02:33:55;;;;;;;;;;;;;;;25.82;62.20;100103.72;2076007;28;19927;-61
2021/08/16 02:34:55;;;;;;;;;;;;;;;25.82;62.29;100112.00;2075356;28;19913;-60
2021/08/16 02:35:55;;;;;;;;;;;;;;;25.82;62.42;100117.53;2074518;28;19920;-60
2021/08/16 02:36:56;;;;;;;;;;;;;;;25.82;62.38;100121.19;2074941;28;19931;-60
2021/08/16 02:37:56;;;;;;;;;;;;;;;25.81;62.36;100108.41;2073916;28;19924;-61
2021/08/16 02:38:56;;;;;;;;;;;;;;;25.81;62.12;100107.56;2073506;28;20638;-60
2021/08/16 02:39:57;;;;;;;;;;;;;;;25.81;62.07;100111.16;2076003;28;20415;-60
2021/08/16 02:40:57;;;;;;;;;;;;;;;25.81;62.30;100113.09;2074633;28;19940;-60
2021/08/16 02:41:57;;;;;;;;;;;;;;;25.82;62.34;100114.78;2075765;28;19916;-61
2021/08/16 02:42:58;;;;;;;;;;;;;;;25.81;62.35;100113.94;2076652;28;20002;-61
2021/08/16 02:43:58;;;;;;;;;;;;;;;25.81;62.14;100115.84;2076154;28;20515;-60
2021/08/16 02:44:58;;;;;;;;;;;;;;;25.81;62.34;100121.38;2078172;28;19913;-60
2021/08/16 02:45:58;;;;;;;;;;;;;;;25.81;62.22;100113.09;2078658;28;20530;-61
2021/08/16 02:46:59;;;;;;;;;;;;;;;25.80;62.34;100116.91;2073016;28;19917;-61
2021/08/16 02:47:59;;;;;;;;;;;;;;;25.81;62.31;100113.09;2075775;28;20190;-61
2021/08/16 02:49:00;;;;;;;;;;;;;;;25.81;62.19;100110.31;2078149;28;19913;-60
2021/08/16 02:50:00;;;;;;;;;;;;;;;25.81;62.03;100113.09;2077260;28;20533;-61
2021/08/16 02:51:00;;;;;;;;;;;;;;;25.79;62.27;100116.03;2076356;28;19913;-60
2021/08/16 02:52:03;;;;;;;;;;;;;;;25.80;62.10;100112.22;2075432;28;20378;-60
2021/08/16 02:53:03;;;;;;;;;;;;;;;25.81;62.02;100113.09;2077300;28;19979;-60
2021/08/16 02:54:04;;;;;;;;;;;;;;;25.81;62.03;100110.31;2075829;28;19920;-60
2021/08/16 02:55:05;;;;;;;;;;;;;;;25.81;62.35;100115.84;2076732;28;19921;-61
2021/08/16 02:56:05;;;;;;;;;;;;;;;25.79;62.14;100110.50;2074970;28;20024;-60
2021/08/16 02:57:05;;;;;;;;;;;;;;;25.80;62.06;100108.63;2072128;28;20015;-60
2021/08/16 02:58:05;;;;;;;;;;;;;;;25.80;62.29;100111.38;2072601;28;19955;-60
2021/08/16 02:59:06;;;;;;;;;;;;;;;25.81;62.10;100107.56;2076779;28;20015;-61
2021/08/16 03:00:07;;;;;;;;;;;;;;;25.79;62.32;100109.66;2074575;28;19983;-60
2021/08/16 03:01:07;;;;;;;;;;;;;;;25.80;62.03;100114.16;2076306;28;20014;-61
2021/08/16 03:02:08;;;;;;;;;;;;;;;25.80;62.07;100114.16;2074258;28;20395;-60
2021/08/16 03:03:08;;;;;;;;;;;;;;;25.80;62.33;100111.38;2075397;28;19921;-60
2021/08/16 03:04:09;;;;;;;;;;;;;;;25.80;62.08;100116.91;2075311;28;20430;-60
2021/08/16 03:05:10;;;;;;;;;;;;;;;25.80;61.99;100108.63;2064627;28;19953;-61
2021/08/16 03:06:10;;;;;;;;;;;;;;;25.80;62.34;100111.38;2067439;28;19921;-60
2021/08/16 03:07:11;;;;;;;;;;;;;;;25.78;62.35;100113.47;2075704;28;19924;-60
2021/08/16 03:08:11;;;;;;;;;;;;;;;25.79;62.20;100112.41;2075308;28;20030;-61
2021/08/16 03:09:11;;;;;;;;;;;;;;;25.78;62.21;100113.47;2076992;28;19921;-61
2021/08/16 03:10:13;;;;;;;;;;;;;;;25.79;62.27;100109.66;2076168;28;20307;-61
2021/08/16 03:11:14;;;;;;;;;;;;;;;25.78;62.15;100113.47;2074847;28;20737;-61
2021/08/16 03:12:14;;;;;;;;;;;;;;;25.78;62.35;100114.31;2073781;28;19943;-60
2021/08/16 03:13:14;;;;;;;;;;;;;;;25.78;62.06;100107.97;2075375;28;19924;-60
2021/08/16 03:14:14;;;;;;;;;;;;;;;25.78;62.40;100111.56;2073052;28;19953;-60
2021/08/16 03:15:15;;;;;;;;;;;;;;;25.78;62.12;100107.97;2074623;28;19974;-60
2021/08/16 03:16:15;;;;;;;;;;;;;;;25.78;62.06;100116.25;2074826;28;19971;-60
2021/08/16 03:17:15;;;;;;;;;;;;;;;25.78;62.40;100113.47;2075842;28;19925;-61
2021/08/16 03:18:16;;;;;;;;;;;;;;;25.77;62.38;100112.63;2074056;28;20374;-60
2021/08/16 03:19:16;;;;;;;;;;;;;;;25.78;62.29;100119.00;2075405;28;20245;-60
2021/08/16 03:20:16;;;;;;;;;;;;;;;25.77;62.40;100114.50;2076452;28;19960;-60
2021/08/16 03:21:17;;;;;;;;;;;;;;;25.77;62.03;100117.28;2074380;28;19932;-61
2021/08/16 03:22:17;;;;;;;;;;;;;;;25.78;62.10;100119.00;2076078;28;20311;-61
2021/08/16 03:23:17;;;;;;;;;;;;;;;25.78;61.90;100110.72;2077309;28;20213;-61
2021/08/16 03:24:18;;;;;;;;;;;;;;;25.77;62.16;100117.28;2075037;28;20098;-60
2021/08/16 03:25:19;;;;;;;;;;;;;;;25.77;62.14;100117.28;2072465;28;19909;-61
2021/08/16 03:26:19;;;;;;;;;;;;;;;25.76;62.05;100115.56;2075095;28;19927;-60
2021/08/16 03:27:20;;;;;;;;;;;;;;;25.77;62.14;100120.03;2075170;28;20007;-60
2021/08/16 03:28:20;;;;;;;;;;;;;;;25.76;62.35;100119.19;2076209;28;19921;-60
2021/08/16 03:29:20;;;;;;;;;;;;;;;25.76;62.12;100118.31;2074669;28;19948;-61
2021/08/16 03:30:20;;;;;;;;;;;;;;;25.77;62.06;100122.78;2076552;28;19925;-60
2021/08/16 03:31:21;;;;;;;;;;;;;;;25.77;62.34;100122.78;2075321;28;19947;-61
2021/08/16 03:32:21;;;;;;;;;;;;;;;25.77;61.89;100123.66;2076394;28;19960;-61
2021/08/16 03:33:21;;;;;;;;;;;;;;;25.76;62.30;100121.94;2077230;28;19913;-60
2021/08/16 03:34:22;;;;;;;;;;;;;;;25.76;62.33;100121.09;2076168;28;19974;-60
2021/08/16 03:35:22;;;;;;;;;;;;;;;25.77;62.37;100117.28;2076595;28;19920;-60
2021/08/16 03:36:22;;;;;;;;;;;;;;;25.77;62.16;100125.56;2076597;28;19936;-60
2021/08/16 03:37:23;;;;;;;;;;;;;;;25.76;62.40;100119.19;2076736;28;19924;-60
2021/08/16 03:38:23;;;;;;;;;;;;;;;25.76;62.12;100132.97;2076758;28;19921;-60
2021/08/16 03:39:23;;;;;;;;;;;;;;;25.76;62.16;100132.97;2075609;28;20419;-61
2021/08/16 03:40:23;;;;;;;;;;;;;;;25.76;62.12;100132.13;2076579;28;19917;-61
2021/08/16 03:41:24;;;;;;;;;;;;;;;25.76;62.09;100134.91;2075916;28;19939;-60
2021/08/16 03:42:24;;;;;;;;;;;;;;;25.76;62.33;100138.50;2076655;28;19921;-61
2021/08/16 03:43:24;;;;;;;;;;;;;;;25.75;62.45;100128.53;2074623;28;20596;-61
2021/08/16 03:44:25;;;;;;;;;;;;;;;25.75;62.14;100130.41;2074684;28;19924;-60
2021/08/16 03:45:25;;;;;;;;;;;;;;;25.75;62.16;100131.28;2073758;28;20435;-60
2021/08/16 03:46:25;;;;;;;;;;;;;;;25.75;62.34;100135.94;2074249;28;20651;-61
2021/08/16 03:47:26;;;;;;;;;;;;;;;25.75;62.26;100130.41;2075767;28;20388;-61
2021/08/16 03:48:26;;;;;;;;;;;;;;;25.75;62.12;100130.41;2075729;28;19948;-61
2021/08/16 03:49:26;;;;;;;;;;;;;;;25.75;62.11;100130.41;2077375;28;19952;-61
2021/08/16 03:50:27;;;;;;;;;;;;;;;25.75;62.14;100141.44;2075701;28;20007;-61
2021/08/16 03:51:27;;;;;;;;;;;;;;;25.75;62.11;100135.94;2076459;28;19928;-60
2021/08/16 03:52:27;;;;;;;;;;;;;;;25.75;62.25;100146.97;2075174;28;20280;-60
2021/08/16 03:53:28;;;;;;;;;;;;;;;25.75;62.21;100144.22;2076785;28;19921;-60
2021/08/16 03:54:28;;;;;;;;;;;;;;;25.75;62.27;100136.81;2075460;28;19916;-61
2021/08/16 03:55:28;;;;;;;;;;;;;;;25.74;62.06;100142.50;2075538;28;20462;-60
2021/08/16 03:56:29;;;;;;;;;;;;;;;25.74;62.50;100142.50;2077157;28;20633;-61
2021/08/16 03:57:29;;;;;;;;;;;;;;;25.74;62.26;100139.75;2075582;28;20662;-61
2021/08/16 03:58:29;;;;;;;;;;;;;;;25.74;62.13;100139.75;2075969;28;19960;-60
2021/08/16 03:59:30;;;;;;;;;;;;;;;25.74;62.07;100142.50;2076503;28;20079;-60
2021/08/16 04:00:30;;;;;;;;;;;;;;;25.74;62.11;100148.03;2075004;28;19921;-61
2021/08/16 04:01:31;;;;;;;;;;;;;;;25.74;62.35;100150.78;2077063;28;19999;-60
2021/08/16 04:02:31;;;;;;;;;;;;;;;25.74;62.23;100143.34;2070200;28;20786;-61
2021/08/16 04:03:32;;;;;;;;;;;;;;;25.74;62.21;100142.50;2079489;28;19931;-60
2021/08/16 04:04:32;;;;;;;;;;;;;;;25.74;62.17;100145.28;2088262;28;20426;-60
2021/08/16 04:05:32;;;;;;;;;;;;;;;25.74;62.18;100150.78;2077025;28;20372;-60
2021/08/16 04:06:32;;;;;;;;;;;;;;;25.74;62.04;100139.75;2077188;28;20353;-60
2021/08/16 04:07:33;;;;;;;;;;;;;;;25.73;61.99;100138.91;2075598;28;19925;-61
2021/08/16 04:08:33;;;;;;;;;;;;;;;25.74;62.30;100145.28;2074584;28;19921;-61
2021/08/16 04:09:34;;;;;;;;;;;;;;;25.73;61.95;100138.91;2076964;28;20351;-61
2021/08/16 04:10:34;;;;;;;;;;;;;;;25.74;61.99;100145.28;2074725;28;20007;-60
2021/08/16 04:11:34;;;;;;;;;;;;;;;25.74;62.17;100142.50;2075386;28;19920;-61
2021/08/16 04:12:34;;;;;;;;;;;;;;;25.73;62.18;100138.06;2075900;28;19923;-60
2021/08/16 04:13:35;;;;;;;;;;;;;;;25.73;62.22;100143.56;2082831;28;19947;-60
2021/08/16 04:14:35;;;;;;;;;;;;;;;25.73;62.00;100146.34;2084062;28;19913;-61
2021/08/16 04:15:35;;;;;;;;;;;;;;;25.74;62.20;100145.28;2074474;28;19921;-60
2021/08/16 04:16:36;;;;;;;;;;;;;;;25.73;62.15;100149.09;2075025;28;19920;-61
2021/08/16 04:17:36;;;;;;;;;;;;;;;25.73;62.28;100149.09;2076865;28;19928;-60
2021/08/16 04:18:37;;;;;;;;;;;;;;;25.72;62.13;100141.84;2075744;28;21583;-61
2021/08/16 04:19:38;;;;;;;;;;;;;;;25.73;62.14;100146.34;2077249;28;19921;-61
2021/08/16 04:20:39;;;;;;;;;;;;;;;25.72;62.25;100145.44;2081891;28;19959;-60
2021/08/16 04:21:39;;;;;;;;;;;;;;;25.73;62.12;100144.41;2074492;28;19921;-61
2021/08/16 04:22:40;;;;;;;;;;;;;;;25.73;62.11;100151.84;2076302;28;19974;-60
2021/08/16 04:23:40;;;;;;;;;;;;;;;25.72;62.03;100150.13;2075690;28;19975;-60
2021/08/16 04:24:40;;;;;;;;;;;;;;;25.72;62.03;100150.97;2076073;28;20812;-60
2021/08/16 04:25:41;;;;;;;;;;;;;;;25.73;62.06;100143.56;2073998;28;19921;-60
2021/08/16 04:26:41;;;;;;;;;;;;;;;25.72;62.34;100141.84;2076443;28;20674;-61
2021/08/16 04:27:42;;;;;;;;;;;;;;;25.72;62.16;100150.13;2075911;28;20184;-60
2021/08/16 04:28:42;;;;;;;;;;;;;;;25.72;62.28;100158.41;2074666;28;19920;-60
2021/08/16 04:29:42;;;;;;;;;;;;;;;25.70;62.33;100147.56;2070703;28;19969;-60
2021/08/16 04:30:43;;;;;;;;;;;;;;;25.71;62.19;100151.19;2075653;28;19925;-60
2021/08/16 04:31:43;;;;;;;;;;;;;;;25.71;62.27;100151.19;2076128;28;19916;-60
2021/08/16 04:32:44;;;;;;;;;;;;;;;25.71;62.24;100151.19;2073846;28;20326;-60
2021/08/16 04:33:44;;;;;;;;;;;;;;;25.71;62.00;100156.72;2075386;28;19920;-60
2021/08/16 04:34:44;;;;;;;;;;;;;;;25.71;61.99;100159.47;2068559;28;19956;-60
2021/08/16 04:35:44;;;;;;;;;;;;;;;25.71;62.19;100156.72;2070184;28;19905;-61
2021/08/16 04:36:45;;;;;;;;;;;;;;;25.71;62.04;100156.72;2075607;28;20786;-60
2021/08/16 04:37:45;;;;;;;;;;;;;;;25.70;62.29;100155.84;2074282;28;20380;-60
2021/08/16 04:38:45;;;;;;;;;;;;;;;25.70;62.18;100154.97;2076064;28;20444;-61
2021/08/16 04:39:46;;;;;;;;;;;;;;;25.71;62.25;100157.56;2075658;28;20682;-61
2021/08/16 04:40:46;;;;;;;;;;;;;;;25.71;61.96;100153.94;2076163;28;19924;-60
2021/08/16 04:41:48;;;;;;;;;;;;;;;25.69;62.06;100154.13;2079083;28;19971;-60
2021/08/16 04:42:48;;;;;;;;;;;;;;;25.70;62.02;100163.25;2075291;28;19923;-61
2021/08/16 04:43:48;;;;;;;;;;;;;;;25.70;61.98;100163.25;2075919;28;19927;-60
2021/08/16 04:44:49;;;;;;;;;;;;;;;25.70;62.00;100160.50;2075152;28;19928;-61
2021/08/16 04:45:49;;;;;;;;;;;;;;;25.70;61.97;100166.03;2074622;28;19963;-61
2021/08/16 04:46:50;;;;;;;;;;;;;;;25.69;62.01;100162.41;2075410;28;20348;-61
2021/08/16 04:47:50;;;;;;;;;;;;;;;25.70;61.98;100166.03;2076397;28;19924;-60
2021/08/16 04:48:51;;;;;;;;;;;;;;;25.70;61.95;100168.78;2075489;28;19943;-60
2021/08/16 04:49:54;;;;;;;;;;;;;;;25.70;62.28;100171.53;2076483;28;19917;-60
2021/08/16 04:50:54;;;;;;;;;;;;;;;25.69;62.03;100161.56;2073993;28;20434;-60
2021/08/16 04:51:54;;;;;;;;;;;;;;;25.70;62.10;100166.03;2083323;28;20402;-61
2021/08/16 04:52:54;;;;;;;;;;;;;;;25.69;62.18;100167.94;2084608;28;20488;-61
2021/08/16 04:53:55;;;;;;;;;;;;;;;25.70;62.01;100166.03;2073839;28;20007;-63
2021/08/16 04:54:55;;;;;;;;;;;;;;;25.69;62.04;100156.88;2075789;28;19920;-61
2021/08/16 04:55:55;;;;;;;;;;;;;;;25.70;62.13;100168.78;2075005;28;19916;-61
2021/08/16 04:56:56;;;;;;;;;;;;;;;25.68;61.92;100146.91;2082309;28;19908;-61
2021/08/16 04:57:56;;;;;;;;;;;;;;;25.69;62.22;100165.16;2084143;28;20456;-61
2021/08/16 04:58:57;;;;;;;;;;;;;;;25.69;62.23;100164.31;2076960;28;20666;-62
2021/08/16 04:59:57;;;;;;;;;;;;;;;25.70;62.21;100160.50;2076930;28;20080;-61
2021/08/16 05:00:58;;;;;;;;;;;;;;;25.69;61.99;100159.66;2076978;28;19928;-61
2021/08/16 05:01:58;;;;;;;;;;;;;;;25.68;61.97;100163.47;2077309;28;19916;-62
2021/08/16 05:03:01;;;;;;;;;;;;;;;25.69;62.11;100165.16;2078184;28;20314;-61
2021/08/16 05:04:01;;;;;;;;;;;;;;;25.69;61.90;100162.41;2078348;28;20317;-61
2021/08/16 05:05:09;;;;;;;;;;;;;;;25.67;61.94;100170.91;2076407;28;19938;-62
2021/08/16 05:06:10;;;;;;;;;;;;;;;25.67;62.15;100164.50;2076270;28;20414;-61
2021/08/16 05:07:10;;;;;;;;;;;;;;;25.68;62.01;100157.94;2083060;28;19942;-62
2021/08/16 05:08:10;;;;;;;;;;;;;;;25.67;62.23;100162.63;2084433;28;19923;-61
2021/08/16 05:09:10;;;;;;;;;;;;;;;25.67;62.17;100158.97;2078112;28;19921;-61
2021/08/16 05:10:11;;;;;;;;;;;;;;;25.67;62.04;100164.50;2076695;28;20323;-61